sensor_id;sensor_type;location;lat;lon;timestamp;pressure;altitude;pressure_sealevel;temperature;humidity
7670;BME280;3877;42.562;27.636;2022-09-01T00:01:33;101188.28;;;24.70;100.00
7670;BME280;3877;42.562;27.636;2022-09-01T00:04:03;101215.28;;;24.76;100.00
7670;BME280;3877;42.562;27.636;2022-09-01T00:06:34;101216.50;;;24.72;100.00
7670;BME280;3877;42.562;27.636;2022-09-01T00:09:08;101212.00;;;24.67;100.00
7670;BME280;3877;42.562;27.636;2022-09-01T00:11:36;101222.66;;;24.70;100.00
7670;BME280;3877;42.562;27.636;2022-09-01T00:14:05;101225.09;;;24.65;100.00
7670;BME280;3877;42.562;27.636;2022-09-01T00:16:33;101223.47;;;24.60;100.00
7670;BME280;3877;42.562;27.636;2022-09-01T00:19:02;101221.00;;;24.55;100.00
7670;BME280;3877;42.562;27.636;2022-09-01T00:21:35;101222.22;;;24.54;100.00
7670;BME280;3877;42.562;27.636;2022-09-01T00:24:04;101228.78;;;24.51;100.00
7670;BME280;3877;42.562;27.636;2022-09-01T00:26:32;101207.06;;;24.43;100.00
7670;BME280;3877;42.562;27.636;2022-09-01T00:28:59;101220.16;;;24.44;100.00
7670;BME280;3877;42.562;27.636;2022-09-01T00:31:27;101230.78;;;24.40;100.00
7670;BME280;3877;42.562;27.636;2022-09-01T00:33:55;101220.97;;;24.37;100.00
7670;BME280;3877;42.562;27.636;2022-09-01T00:36:24;101223.84;;;24.41;100.00
7670;BME280;3877;42.562;27.636;2022-09-01T00:38:51;101217.69;;;24.39;100.00
7670;BME280;3877;42.562;27.636;2022-09-01T00:41:23;101225.06;;;24.40;100.00
7670;BME280;3877;42.562;27.636;2022-09-01T00:43:52;101227.91;;;24.44;100.00
7670;BME280;3877;42.562;27.636;2022-09-01T00:46:22;101223.41;;;24.39;100.00
7670;BME280;3877;42.562;27.636;2022-09-01T00:48:52;101226.72;;;24.45;100.00
7670;BME280;3877;42.562;27.636;2022-09-01T00:51:20;101218.94;;;24.42;100.00
7670;BME280;3877;42.562;27.636;2022-09-01T00:53:49;101217.69;;;24.39;100.00
7670;BME280;3877;42.562;27.636;2022-09-01T00:56:18;101220.97;;;24.41;100.00
7670;BME280;3877;42.562;27.636;2022-09-01T00:58:45;101226.72;;;24.37;100.00
7670;BME280;3877;42.562;27.636;2022-09-01T01:01:12;101220.16;;;24.37;100.00
7670;BME280;3877;42.562;27.636;2022-09-01T01:03:41;101224.25;;;24.43;100.00
7670;BME280;3877;42.562;27.636;2022-09-01T01:06:13;101212.38;;;24.45;100.00
7670;BME280;3877;42.562;27.636;2022-09-01T01:08:44;101214.44;;;24.44;100.00
7670;BME280;3877;42.562;27.636;2022-09-01T01:11:25;101216.88;;;24.35;100.00
7670;BME280;3877;42.562;27.636;2022-09-01T01:13:56;101223.81;;;24.34;100.00
7670;BME280;3877;42.562;27.636;2022-09-01T01:16:26;101222.19;;;24.40;100.00
7670;BME280;3877;42.562;27.636;2022-09-01T01:18:54;101216.03;;;24.38;100.00
7670;BME280;3877;42.562;27.636;2022-09-01T01:21:31;101225.88;;;24.40;100.00
7670;BME280;3877;42.562;27.636;2022-09-01T01:24:23;101220.16;;;24.40;100.00
7670;BME280;3877;42.562;27.636;2022-09-01T01:26:51;101107.91;;;23.78;100.00
7670;BME280;3877;42.562;27.636;2022-09-01T01:29:20;101221.81;;;24.45;100.00
7670;BME280;3877;42.562;27.636;2022-09-01T01:31:47;101211.56;;;24.37;100.00
7670;BME280;3877;42.562;27.636;2022-09-01T01:34:16;101218.13;;;24.41;100.00
7670;BME280;3877;42.562;27.636;2022-09-01T01:36:44;101215.22;;;24.34;100.00
7670;BME280;3877;42.562;27.636;2022-09-01T01:39:14;101218.50;;;24.32;100.00
7670;BME280;3877;42.562;27.636;2022-09-01T01:41:44;101218.47;;;24.29;100.00
7670;BME280;3877;42.562;27.636;2022-09-01T01:44:16;101210.28;;;24.24;100.00
7670;BME280;3877;42.562;27.636;2022-09-01T01:46:46;101216.88;;;24.28;100.00
7670;BME280;3877;42.562;27.636;2022-09-01T01:49:16;101215.19;;;24.20;100.00
7670;BME280;3877;42.562;27.636;2022-09-01T01:51:45;101110.28;;;23.55;100.00
7670;BME280;3877;42.562;27.636;2022-09-01T01:54:13;101211.06;;;24.14;100.00
7670;BME280;3877;42.562;27.636;2022-09-01T01:56:40;101207.78;;;24.15;100.00
7670;BME280;3877;42.562;27.636;2022-09-01T01:59:10;101208.59;;;24.16;100.00
7670;BME280;3877;42.562;27.636;2022-09-01T02:01:40;101216.38;;;24.15;100.00
7670;BME280;3877;42.562;27.636;2022-09-01T02:04:09;101212.31;;;24.16;100.00
7670;BME280;3877;42.562;27.636;2022-09-01T02:06:39;101215.97;;;24.13;100.00
7670;BME280;3877;42.562;27.636;2022-09-01T02:09:11;101116.38;;;23.46;100.00
7670;BME280;3877;42.562;27.636;2022-09-01T02:11:38;101220.91;;;24.16;100.00
7670;BME280;3877;42.562;27.636;2022-09-01T02:14:08;101220.91;;;24.16;100.00
7670;BME280;3877;42.562;27.636;2022-09-01T02:16:39;101230.66;;;24.08;100.00
7670;BME280;3877;42.562;27.636;2022-09-01T02:19:08;101216.75;;;24.07;100.00
7670;BME280;3877;42.562;27.636;2022-09-01T02:21:37;101224.09;;;24.01;100.00
7670;BME280;3877;42.562;27.636;2022-09-01T02:24:10;101227.34;;;23.95;100.00
7670;BME280;3877;42.562;27.636;2022-09-01T02:26:39;101221.59;;;23.95;100.00
7670;BME280;3877;42.562;27.636;2022-09-01T02:29:11;101220.78;;;23.91;100.00
7670;BME280;3877;42.562;27.636;2022-09-01T02:31:43;101217.53;;;23.93;100.00
7670;BME280;3877;42.562;27.636;2022-09-01T02:34:12;101217.53;;;23.89;100.00
7670;BME280;3877;42.562;27.636;2022-09-01T02:36:41;101218.72;;;23.88;100.00
7670;BME280;3877;42.562;27.636;2022-09-01T02:39:12;101214.22;;;23.87;100.00
7670;BME280;3877;42.562;27.636;2022-09-01T02:41:40;101211.75;;;23.86;100.00
7670;BME280;3877;42.562;27.636;2022-09-01T02:44:09;101210.97;;;23.92;100.00
7670;BME280;3877;42.562;27.636;2022-09-01T02:46:38;101213.41;;;23.90;100.00
7670;BME280;3877;42.562;27.636;2022-09-01T02:49:08;101210.97;;;23.92;100.00
7670;BME280;3877;42.562;27.636;2022-09-01T02:51:40;101174.09;;;23.66;100.00
7670;BME280;3877;42.562;27.636;2022-09-01T02:54:08;101208.50;;;23.87;100.00
7670;BME280;3877;42.562;27.636;2022-09-01T02:56:35;101213.00;;;23.88;100.00
7670;BME280;3877;42.562;27.636;2022-09-01T02:59:03;101209.72;;;23.86;100.00
7670;BME280;3877;42.562;27.636;2022-09-01T03:01:32;101210.91;;;23.78;100.00
7670;BME280;3877;42.562;27.636;2022-09-01T03:04:01;101212.97;;;23.78;100.00
7670;BME280;3877;42.562;27.636;2022-09-01T03:06:30;101212.13;;;23.77;100.00
7670;BME280;3877;42.562;27.636;2022-09-01T03:09:04;101207.63;;;23.76;100.00
7670;BME280;3877;42.562;27.636;2022-09-01T03:11:33;101209.25;;;23.70;100.00
7670;BME280;3877;42.562;27.636;2022-09-01T03:14:01;101209.66;;;23.72;100.00
7670;BME280;3877;42.562;27.636;2022-09-01T03:16:31;101164.94;;;23.43;100.00
7670;BME280;3877;42.562;27.636;2022-09-01T03:18:59;101207.63;;;23.73;100.00
7670;BME280;3877;42.562;27.636;2022-09-01T03:21:28;101213.34;;;23.69;100.00
7670;BME280;3877;42.562;27.636;2022-09-01T03:23:57;101209.22;;;23.67;100.00
7670;BME280;3877;42.562;27.636;2022-09-01T03:26:26;101213.28;;;23.62;100.00
7670;BME280;3877;42.562;27.636;2022-09-01T03:28:54;101210.03;;;23.60;100.00
7670;BME280;3877;42.562;27.636;2022-09-01T03:31:22;101215.31;;;23.58;100.00
7670;BME280;3877;42.562;27.636;2022-09-01T03:33:53;101227.56;;;23.59;100.00
7670;BME280;3877;42.562;27.636;2022-09-01T03:36:22;101207.47;;;23.48;100.00
7670;BME280;3877;42.562;27.636;2022-09-01T03:38:51;101214.06;;;23.52;100.00
7670;BME280;3877;42.562;27.636;2022-09-01T03:41:21;101214.47;;;23.50;100.00
7670;BME280;3877;42.562;27.636;2022-09-01T03:43:50;101219.78;;;23.52;100.00
7670;BME280;3877;42.562;27.636;2022-09-01T03:46:20;101206.28;;;23.49;100.00
7670;BME280;3877;42.562;27.636;2022-09-01T03:48:50;101213.66;;;23.57;100.00
7670;BME280;3877;42.562;27.636;2022-09-01T03:51:22;101223.50;;;23.63;100.00
7670;BME280;3877;42.562;27.636;2022-09-01T03:53:50;101220.66;;;23.63;100.00
7670;BME280;3877;42.562;27.636;2022-09-01T03:56:19;101219.03;;;23.66;100.00
7670;BME280;3877;42.562;27.636;2022-09-01T03:58:46;101209.22;;;23.67;100.00
7670;BME280;3877;42.562;27.636;2022-09-01T04:01:14;101212.94;;;23.74;100.00
7670;BME280;3877;42.562;27.636;2022-09-01T04:03:42;101216.66;;;23.78;100.00
7670;BME280;3877;42.562;27.636;2022-09-01T04:06:14;101212.94;;;23.74;100.00
7670;BME280;3877;42.562;27.636;2022-09-01T04:08:50;101226.06;;;23.86;100.00
7670;BME280;3877;42.562;27.636;2022-09-01T04:11:21;101219.13;;;23.90;100.00
7670;BME280;3877;42.562;27.636;2022-09-01T04:13:49;101215.53;;;24.08;100.00
7670;BME280;3877;42.562;27.636;2022-09-01T04:16:19;101218.47;;;24.22;100.00
7670;BME280;3877;42.562;27.636;2022-09-01T04:19:00;101215.22;;;24.27;100.00
7670;BME280;3877;42.562;27.636;2022-09-01T04:21:33;101204.59;;;24.38;100.00
7670;BME280;3877;42.562;27.636;2022-09-01T04:24:02;101217.75;;;24.60;100.00
7670;BME280;3877;42.562;27.636;2022-09-01T04:26:30;101205.47;;;24.70;100.00
7670;BME280;3877;42.562;27.636;2022-09-01T04:28:58;101218.59;;;25.00;100.00
7670;BME280;3877;42.562;27.636;2022-09-01T04:31:26;101208.34;;;25.06;100.00
7670;BME280;3877;42.562;27.636;2022-09-01T04:33:55;101190.75;;;25.04;100.00
7670;BME280;3877;42.562;27.636;2022-09-01T04:36:24;101214.50;;;25.08;100.00
7670;BME280;3877;42.562;27.636;2022-09-01T04:38:55;101213.66;;;25.25;100.00
7670;BME280;3877;42.562;27.636;2022-09-01T04:41:26;101209.94;;;25.39;100.00
7670;BME280;3877;42.562;27.636;2022-09-01T04:43:56;101215.28;;;25.33;100.00
7670;BME280;3877;42.562;27.636;2022-09-01T04:46:25;101199.31;;;25.21;100.00
7670;BME280;3877;42.562;27.636;2022-09-01T04:48:54;101217.34;;;25.22;100.00
7670;BME280;3877;42.562;27.636;2022-09-01T04:51:22;101227.56;;;25.30;100.00
7670;BME280;3877;42.562;27.636;2022-09-01T04:53:53;101226.75;;;25.54;100.00
7670;BME280;3877;42.562;27.636;2022-09-01T04:56:25;101209.44;;;25.83;100.00
7670;BME280;3877;42.562;27.636;2022-09-01T04:59:00;101212.59;;;26.06;100.00
7670;BME280;3877;42.562;27.636;2022-09-01T05:01:32;101223.22;;;26.16;100.00
7670;BME280;3877;42.562;27.636;2022-09-01T05:04:08;101215.78;;;26.29;100.00
7670;BME280;3877;42.562;27.636;2022-09-01T05:06:39;101204.09;;;26.58;100.00
7670;BME280;3877;42.562;27.636;2022-09-01T05:09:08;101211.66;;;26.92;100.00
7670;BME280;3877;42.562;27.636;2022-09-01T05:11:39;101184.94;;;26.95;100.00
7670;BME280;3877;42.562;27.636;2022-09-01T05:14:10;101198.75;;;27.11;100.00
7670;BME280;3877;42.562;27.636;2022-09-01T05:16:38;101192.09;;;27.21;100.00
7670;BME280;3877;42.562;27.636;2022-09-01T05:19:08;101194.00;;;27.35;100.00
7670;BME280;3877;42.562;27.636;2022-09-01T05:21:40;101193.66;;;27.67;100.00
7670;BME280;3877;42.562;27.636;2022-09-01T05:24:10;101194.84;;;27.73;100.00
7670;BME280;3877;42.562;27.636;2022-09-01T05:26:42;101194.72;;;27.80;100.00
7670;BME280;3877;42.562;27.636;2022-09-01T05:29:12;101203.16;;;27.64;100.00
7670;BME280;3877;42.562;27.636;2022-09-01T05:31:44;101198.09;;;27.75;100.00
7670;BME280;3877;42.562;27.636;2022-09-01T05:34:11;101197.75;;;28.03;100.00
7670;BME280;3877;42.562;27.636;2022-09-01T05:36:42;101187.47;;;28.02;100.00
7670;BME280;3877;42.562;27.636;2022-09-01T05:39:09;101210.41;;;27.79;100.00
7670;BME280;3877;42.562;27.636;2022-09-01T05:41:38;101209.91;;;27.47;100.00
7670;BME280;3877;42.562;27.636;2022-09-01T05:44:08;101214.84;;;27.46;100.00
7670;BME280;3877;42.562;27.636;2022-09-01T05:46:37;101192.53;;;27.61;100.00
7670;BME280;3877;42.562;27.636;2022-09-01T05:49:05;101196.88;;;28.06;100.00
7670;BME280;3877;42.562;27.636;2022-09-01T05:51:33;101175.03;;;28.12;100.00
7670;BME280;3877;42.562;27.636;2022-09-01T05:54:01;101209.06;;;28.48;100.00
7670;BME280;3877;42.562;27.636;2022-09-01T05:56:30;101211.50;;;28.22;100.00
7670;BME280;3877;42.562;27.636;2022-09-01T05:58:59;101207.41;;;28.20;100.00
7670;BME280;3877;42.562;27.636;2022-09-01T06:01:29;101203.50;;;28.03;100.00
7670;BME280;3877;42.562;27.636;2022-09-01T06:04:00;101205.13;;;28.04;100.00
7670;BME280;3877;42.562;27.636;2022-09-01T06:06:35;101190.19;;;28.16;100.00
7670;BME280;3877;42.562;27.636;2022-09-01T06:09:04;101213.66;;;28.42;100.00
7670;BME280;3877;42.562;27.636;2022-09-01T06:11:31;101205.41;;;28.44;100.00
7670;BME280;3877;42.562;27.636;2022-09-01T06:13:59;101209.81;;;28.52;100.00
7670;BME280;3877;42.562;27.636;2022-09-01T06:16:29;101221.06;;;28.43;100.00
7670;BME280;3877;42.562;27.636;2022-09-01T06:18:56;101212.91;;;28.38;100.00
7670;BME280;3877;42.562;27.636;2022-09-01T06:21:25;101209.25;;;28.34;100.00
7670;BME280;3877;42.562;27.636;2022-09-01T06:23:54;101130.53;;;27.83;100.00
7670;BME280;3877;42.562;27.636;2022-09-01T06:26:24;101218.72;;;28.34;100.00
7670;BME280;3877;42.562;27.636;2022-09-01T06:28:54;101201.59;;;28.23;100.00
7670;BME280;3877;42.562;27.636;2022-09-01T06:31:25;101228.94;;;28.39;100.00
7670;BME280;3877;42.562;27.636;2022-09-01T06:33:54;101220.31;;;28.39;100.00
7670;BME280;3877;42.562;27.636;2022-09-01T06:36:23;101217.69;;;28.48;100.00
7670;BME280;3877;42.562;27.636;2022-09-01T06:38:51;101149.16;;;28.05;100.00
7670;BME280;3877;42.562;27.636;2022-09-01T06:41:20;101199.78;;;28.37;100.00
7670;BME280;3877;42.562;27.636;2022-09-01T06:43:49;101221.78;;;28.50;100.00
7670;BME280;3877;42.562;27.636;2022-09-01T06:46:17;101229.72;;;28.43;100.00
7670;BME280;3877;42.562;27.636;2022-09-01T06:48:44;101217.81;;;28.41;100.00
7670;BME280;3877;42.562;27.636;2022-09-01T06:51:14;101214.81;;;28.48;100.00
7670;BME280;3877;42.562;27.636;2022-09-01T06:53:43;101230.00;;;28.52;100.00
7670;BME280;3877;42.562;27.636;2022-09-01T06:56:10;101206.38;;;28.34;100.00
7670;BME280;3877;42.562;27.636;2022-09-01T06:58:40;101227.22;;;28.45;100.00
7670;BME280;3877;42.562;27.636;2022-09-01T07:01:12;101216.16;;;28.13;100.00
7670;BME280;3877;42.562;27.636;2022-09-01T07:03:40;101238.69;;;28.21;100.00
7670;BME280;3877;42.562;27.636;2022-09-01T07:06:09;101243.56;;;28.24;100.00
7670;BME280;3877;42.562;27.636;2022-09-01T07:08:38;101256.47;;;28.09;100.00
7670;BME280;3877;42.562;27.636;2022-09-01T07:11:15;101252.47;;;28.03;100.00
7670;BME280;3877;42.562;27.636;2022-09-01T07:13:49;101261.75;;;28.18;100.00
7670;BME280;3877;42.562;27.636;2022-09-01T07:16:19;101248.78;;;28.33;100.00
7670;BME280;3877;42.562;27.636;2022-09-01T07:18:48;101243.38;;;28.39;100.00
7670;BME280;3877;42.562;27.636;2022-09-01T07:21:15;101253.72;;;28.63;100.00
7670;BME280;3877;42.562;27.636;2022-09-01T07:23:45;101258.19;;;28.67;100.00
7670;BME280;3877;42.562;27.636;2022-09-01T07:26:13;101254.91;;;28.65;100.00
7670;BME280;3877;42.562;27.636;2022-09-01T07:28:43;101261.06;;;28.67;100.00
7670;BME280;3877;42.562;27.636;2022-09-01T07:31:17;101262.44;;;28.86;100.00
7670;BME280;3877;42.562;27.636;2022-09-01T07:33:48;101263.25;;;28.87;100.00
7670;BME280;3877;42.562;27.636;2022-09-01T07:36:17;101261.19;;;28.60;100.00
7670;BME280;3877;42.562;27.636;2022-09-01T07:38:46;101221.28;;;28.28;100.00
7670;BME280;3877;42.562;27.636;2022-09-01T07:41:16;101266.78;;;28.71;100.00
7670;BME280;3877;42.562;27.636;2022-09-01T07:43:44;101255.78;;;28.89;100.00
7670;BME280;3877;42.562;27.636;2022-09-01T07:46:11;101256.34;;;29.07;100.00
7670;BME280;3877;42.562;27.636;2022-09-01T07:48:39;101270.59;;;28.91;100.00
7670;BME280;3877;42.562;27.636;2022-09-01T07:51:07;101271.78;;;28.67;100.00
7670;BME280;3877;42.562;27.636;2022-09-01T07:53:34;101278.34;;;28.67;100.00
7670;BME280;3877;42.562;27.636;2022-09-01T07:56:08;101267.44;;;28.82;100.00
7670;BME280;3877;42.562;27.636;2022-09-01T07:58:37;101271.53;;;28.85;100.00
7670;BME280;3877;42.562;27.636;2022-09-01T08:01:07;101267.44;;;28.82;100.00
7670;BME280;3877;42.562;27.636;2022-09-01T08:03:36;101275.03;;;28.73;100.00
7670;BME280;3877;42.562;27.636;2022-09-01T08:06:06;101267.63;;;28.72;100.00
7670;BME280;3877;42.562;27.636;2022-09-01T08:08:35;101274.47;;;28.81;100.00
7670;BME280;3877;42.562;27.636;2022-09-01T08:11:06;101272.56;;;28.71;100.00
7670;BME280;3877;42.562;27.636;2022-09-01T08:13:35;101275.34;;;28.78;100.00
7670;BME280;3877;42.562;27.636;2022-09-01T08:16:04;101272.78;;;28.84;100.00
7670;BME280;3877;42.562;27.636;2022-09-01T08:18:32;101277.94;;;28.96;100.00
7670;BME280;3877;42.562;27.636;2022-09-01T08:21:05;101253.75;;;29.13;100.00
7670;BME280;3877;42.562;27.636;2022-09-01T08:23:32;101270.19;;;29.16;100.00
7670;BME280;3877;42.562;27.636;2022-09-01T08:26:06;101271.13;;;29.09;100.00
7670;BME280;3877;42.562;27.636;2022-09-01T08:28:33;101263.59;;;28.92;100.00
7670;BME280;3877;42.562;27.636;2022-09-01T08:31:05;101257.56;;;28.83;100.00
7670;BME280;3877;42.562;27.636;2022-09-01T08:33:33;101270.81;;;28.77;100.00
7670;BME280;3877;42.562;27.636;2022-09-01T08:36:01;101251.41;;;28.81;100.00
7670;BME280;3877;42.562;27.636;2022-09-01T08:38:29;101262.84;;;29.11;100.00
7670;BME280;3877;42.562;27.636;2022-09-01T08:40:57;101257.94;;;29.08;100.00
7670;BME280;3877;42.562;27.636;2022-09-01T08:43:37;101253.44;;;28.84;100.00
7670;BME280;3877;42.562;27.636;2022-09-01T08:46:14;101262.38;;;28.90;100.00
7670;BME280;3877;42.562;27.636;2022-09-01T08:48:46;101253.13;;;29.02;100.00
7670;BME280;3877;42.562;27.636;2022-09-01T08:51:20;101239.72;;;29.15;100.00
7670;BME280;3877;42.562;27.636;2022-09-01T08:53:58;101258.97;;;29.22;100.00
7670;BME280;3877;42.562;27.636;2022-09-01T08:56:27;101255.34;;;29.18;100.00
7670;BME280;3877;42.562;27.636;2022-09-01T08:58:57;101259.25;;;29.31;100.00
7670;BME280;3877;42.562;27.636;2022-09-01T09:01:30;101263.81;;;29.51;100.00
7670;BME280;3877;42.562;27.636;2022-09-01T09:04:18;101238.41;;;29.43;100.00
7670;BME280;3877;42.562;27.636;2022-09-01T09:06:51;101251.94;;;29.23;100.00
7670;BME280;3877;42.562;27.636;2022-09-01T09:09:28;101246.03;;;29.30;100.00
7670;BME280;3877;42.562;27.636;2022-09-01T09:12:12;101238.78;;;29.45;100.00
7670;BME280;3877;42.562;27.636;2022-09-01T09:14:55;101231.63;;;29.53;100.00
7670;BME280;3877;42.562;27.636;2022-09-01T09:17:33;101246.38;;;29.59;100.00
7670;BME280;3877;42.562;27.636;2022-09-01T09:20:03;101233.69;;;29.52;100.00
7670;BME280;3877;42.562;27.636;2022-09-01T09:22:32;101229.97;;;29.52;100.00
7670;BME280;3877;42.562;27.636;2022-09-01T09:25:02;101224.75;;;29.67;100.00
7670;BME280;3877;42.562;27.636;2022-09-01T09:27:34;101232.34;;;29.57;100.00
7670;BME280;3877;42.562;27.636;2022-09-01T09:30:05;101224.53;;;29.77;100.00
7670;BME280;3877;42.562;27.636;2022-09-01T09:32:45;101196.09;;;29.56;100.00
7670;BME280;3877;42.562;27.636;2022-09-01T09:35:32;101230.38;;;29.54;100.00
7670;BME280;3877;42.562;27.636;2022-09-01T09:38:16;101204.34;;;29.11;100.00
7670;BME280;3877;42.562;27.636;2022-09-01T09:40:59;101234.00;;;29.11;100.00
7670;BME280;3877;42.562;27.636;2022-09-01T09:43:28;101232.72;;;28.89;100.00
7670;BME280;3877;42.562;27.636;2022-09-01T09:46:23;101230.81;;;29.06;100.00
7670;BME280;3877;42.562;27.636;2022-09-01T09:49:10;101220.50;;;29.05;100.00
7670;BME280;3877;42.562;27.636;2022-09-01T09:51:39;101229.91;;;28.86;100.00
7670;BME280;3877;42.562;27.636;2022-09-01T09:54:11;101238.47;;;28.89;100.00
7670;BME280;3877;42.562;27.636;2022-09-01T09:56:39;101233.47;;;28.66;100.00
7670;BME280;3877;42.562;27.636;2022-09-01T09:59:25;101223.91;;;28.46;100.00
7670;BME280;3877;42.562;27.636;2022-09-01T10:01:58;101225.78;;;28.60;100.00
7670;BME280;3877;42.562;27.636;2022-09-01T10:04:36;101227.94;;;28.52;100.00
7670;BME280;3877;42.562;27.636;2022-09-01T10:07:22;101215.84;;;28.61;100.00
7670;BME280;3877;42.562;27.636;2022-09-01T10:09:50;101219.25;;;28.56;100.00
7670;BME280;3877;42.562;27.636;2022-09-01T10:12:18;101184.44;;;28.43;100.00
7670;BME280;3877;42.562;27.636;2022-09-01T10:14:50;101207.16;;;28.91;100.00
7670;BME280;3877;42.562;27.636;2022-09-01T10:17:23;101213.75;;;28.92;100.00
7670;BME280;3877;42.562;27.636;2022-09-01T10:19:55;101193.41;;;28.76;100.00
7670;BME280;3877;42.562;27.636;2022-09-01T10:22:23;101214.38;;;28.80;100.00
7670;BME280;3877;42.562;27.636;2022-09-01T10:24:51;101209.78;;;28.82;100.00
7670;BME280;3877;42.562;27.636;2022-09-01T10:27:22;101208.72;;;28.96;100.00
7670;BME280;3877;42.562;27.636;2022-09-01T10:29:53;101215.44;;;29.12;100.00
7670;BME280;3877;42.562;27.636;2022-09-01T10:32:28;101204.91;;;29.26;100.00
7670;BME280;3877;42.562;27.636;2022-09-01T10:34:58;101195.28;;;28.86;100.00
7670;BME280;3877;42.562;27.636;2022-09-01T10:37:26;101201.78;;;28.93;100.00
7670;BME280;3877;42.562;27.636;2022-09-01T10:40:19;101204.28;;;28.91;100.00
7670;BME280;3877;42.562;27.636;2022-09-01T10:42:48;101202.22;;;28.92;100.00
7670;BME280;3877;42.562;27.636;2022-09-01T10:45:29;101196.88;;;28.90;100.00
7670;BME280;3877;42.562;27.636;2022-09-01T10:48:21;101200.50;;;28.94;100.00
7670;BME280;3877;42.562;27.636;2022-09-01T10:50:52;101193.69;;;29.08;100.00
7670;BME280;3877;42.562;27.636;2022-09-01T10:53:39;101196.03;;;29.13;100.00
7670;BME280;3877;42.562;27.636;2022-09-01T10:56:09;101197.63;;;29.18;100.00
7670;BME280;3877;42.562;27.636;2022-09-01T10:58:48;101198.06;;;28.93;100.00
7670;BME280;3877;42.562;27.636;2022-09-01T11:04:22;101199.63;;;28.97;100.00
7670;BME280;3877;42.562;27.636;2022-09-01T11:06:56;101203.78;;;28.96;100.00
7670;BME280;3877;42.562;27.636;2022-09-01T11:09:32;101206.41;;;29.10;100.00
7670;BME280;3877;42.562;27.636;2022-09-01T11:12:37;101211.91;;;29.25;100.00
7670;BME280;3877;42.562;27.636;2022-09-01T11:15:32;101204.75;;;29.36;100.00
7670;BME280;3877;42.562;27.636;2022-09-01T11:18:01;101203.78;;;29.43;100.00
7670;BME280;3877;42.562;27.636;2022-09-01T11:20:31;101197.13;;;29.46;100.00
7670;BME280;3877;42.562;27.636;2022-09-01T11:23:02;101195.00;;;29.27;100.00
7670;BME280;3877;42.562;27.636;2022-09-01T11:25:34;101178.31;;;28.91;100.00
7670;BME280;3877;42.562;27.636;2022-09-01T11:30:48;101191.75;;;29.01;100.00
7670;BME280;3877;42.562;27.636;2022-09-01T11:33:28;101193.97;;;29.13;100.00
7670;BME280;3877;42.562;27.636;2022-09-01T11:36:02;101197.75;;;29.34;100.00
7670;BME280;3877;42.562;27.636;2022-09-01T11:38:35;101187.84;;;29.11;100.00
7670;BME280;3877;42.562;27.636;2022-09-01T11:41:04;101178.94;;;29.02;100.00
7670;BME280;3877;42.562;27.636;2022-09-01T11:43:32;101170.66;;;29.04;100.00
7670;BME280;3877;42.562;27.636;2022-09-01T11:46:09;101181.94;;;29.19;100.00
7670;BME280;3877;42.562;27.636;2022-09-01T11:48:45;101177.63;;;29.07;100.00
7670;BME280;3877;42.562;27.636;2022-09-01T11:51:14;101181.38;;;29.27;100.00
7670;BME280;3877;42.562;27.636;2022-09-01T11:53:42;101186.59;;;29.12;100.00
7670;BME280;3877;42.562;27.636;2022-09-01T11:56:15;101177.06;;;29.16;100.00
7670;BME280;3877;42.562;27.636;2022-09-01T11:58:42;101180.06;;;29.08;100.00
7670;BME280;3877;42.562;27.636;2022-09-01T12:01:14;101178.06;;;29.05;100.00
7670;BME280;3877;42.562;27.636;2022-09-01T12:03:43;101178.63;;;28.97;100.00
7670;BME280;3877;42.562;27.636;2022-09-01T12:06:20;101188.59;;;28.92;100.00
7670;BME280;3877;42.562;27.636;2022-09-01T12:08:54;101188.72;;;28.85;100.00
7670;BME280;3877;42.562;27.636;2022-09-01T12:11:25;101180.94;;;29.05;100.00
7670;BME280;3877;42.562;27.636;2022-09-01T12:13:59;101120.34;;;28.59;100.00
7670;BME280;3877;42.562;27.636;2022-09-01T12:16:28;101192.72;;;29.14;100.00
7670;BME280;3877;42.562;27.636;2022-09-01T12:18:57;101195.63;;;29.14;100.00
7670;BME280;3877;42.562;27.636;2022-09-01T12:21:28;101204.66;;;29.40;100.00
7670;BME280;3877;42.562;27.636;2022-09-01T12:24:10;101198.75;;;29.24;100.00
7670;BME280;3877;42.562;27.636;2022-09-01T12:26:38;101200.66;;;29.34;100.00
7670;BME280;3877;42.562;27.636;2022-09-01T12:29:07;101210.00;;;29.41;100.00
7670;BME280;3877;42.562;27.636;2022-09-01T12:31:35;101212.31;;;29.27;100.00
7670;BME280;3877;42.562;27.636;2022-09-01T12:34:02;101212.06;;;29.41;100.00
7670;BME280;3877;42.562;27.636;2022-09-01T12:36:33;101201.13;;;29.52;100.00
7670;BME280;3877;42.562;27.636;2022-09-01T12:39:22;101198.50;;;29.14;100.00
7670;BME280;3877;42.562;27.636;2022-09-01T12:42:03;101202.63;;;29.13;100.00
7670;BME280;3877;42.562;27.636;2022-09-01T12:44:32;101175.03;;;28.89;100.00
7670;BME280;3877;42.562;27.636;2022-09-01T12:47:02;101193.47;;;29.19;100.00
7670;BME280;3877;42.562;27.636;2022-09-01T12:49:37;101185.88;;;29.28;100.00
7670;BME280;3877;42.562;27.636;2022-09-01T12:52:27;101172.19;;;29.12;100.00
7670;BME280;3877;42.562;27.636;2022-09-01T12:55:09;101186.97;;;29.38;100.00
7670;BME280;3877;42.562;27.636;2022-09-01T12:57:44;101185.88;;;29.71;100.00
7670;BME280;3877;42.562;27.636;2022-09-01T13:00:15;101193.44;;;30.05;100.00
7670;BME280;3877;42.562;27.636;2022-09-01T13:02:46;101182.63;;;30.09;100.00
7670;BME280;3877;42.562;27.636;2022-09-01T13:05:21;101188.38;;;29.92;100.00
7670;BME280;3877;42.562;27.636;2022-09-01T13:07:51;101191.75;;;30.07;100.00
7670;BME280;3877;42.562;27.636;2022-09-01T13:10:19;101183.88;;;29.88;100.00
7670;BME280;3877;42.562;27.636;2022-09-01T13:12:48;101190.53;;;29.88;100.00
7670;BME280;3877;42.562;27.636;2022-09-01T13:15:16;101191.22;;;30.12;100.00
7670;BME280;3877;42.562;27.636;2022-09-01T13:17:43;101208.03;;;29.78;100.00